sensor_id;sensor_type;location;lat;lon;timestamp;temperature;humidity
296;DHT22;132;48.770;9.200;2023-12-20T00:00:49;6.90;1.00
296;DHT22;132;48.770;9.200;2023-12-20T00:03:31;6.80;1.00
296;DHT22;132;48.770;9.200;2023-12-20T00:06:18;7.30;1.00
296;DHT22;132;48.770;9.200;2023-12-20T00:09:05;6.90;1.00
296;DHT22;132;48.770;9.200;2023-12-20T00:11:52;6.90;1.00
296;DHT22;132;48.770;9.200;2023-12-20T00:14:29;6.90;1.00
296;DHT22;132;48.770;9.200;2023-12-20T00:17:16;7.00;1.00
296;DHT22;132;48.770;9.200;2023-12-20T00:20:03;7.30;1.00
296;DHT22;132;48.770;9.200;2023-12-20T00:22:50;7.00;1.00
296;DHT22;132;48.770;9.200;2023-12-20T00:25:36;7.00;1.00
296;DHT22;132;48.770;9.200;2023-12-20T00:28:23;7.00;1.00
296;DHT22;132;48.770;9.200;2023-12-20T00:31:09;6.90;1.00
296;DHT22;132;48.770;9.200;2023-12-20T00:33:56;6.90;1.00
296;DHT22;132;48.770;9.200;2023-12-20T00:36:42;6.90;1.00
296;DHT22;132;48.770;9.200;2023-12-20T00:39:29;6.80;1.00
296;DHT22;132;48.770;9.200;2023-12-20T00:42:16;6.80;1.00
296;DHT22;132;48.770;9.200;2023-12-20T00:45:03;6.80;1.00
296;DHT22;132;48.770;9.200;2023-12-20T00:47:51;6.80;1.00
296;DHT22;132;48.770;9.200;2023-12-20T00:50:37;6.80;1.00
296;DHT22;132;48.770;9.200;2023-12-20T00:56:01;6.70;1.00
296;DHT22;132;48.770;9.200;2023-12-20T00:58:49;6.40;1.00
296;DHT22;132;48.770;9.200;2023-12-20T01:01:36;6.60;1.00
296;DHT22;132;48.770;9.200;2023-12-20T01:04:22;6.60;1.00
296;DHT22;132;48.770;9.200;2023-12-20T01:07:09;6.60;1.00
296;DHT22;132;48.770;9.200;2023-12-20T01:09:56;6.60;1.00
296;DHT22;132;48.770;9.200;2023-12-20T01:12:43;6.60;1.00
296;DHT22;132;48.770;9.200;2023-12-20T01:15:30;6.50;1.00
296;DHT22;132;48.770;9.200;2023-12-20T01:18:16;6.50;1.00
296;DHT22;132;48.770;9.200;2023-12-20T01:21:03;6.50;1.00
296;DHT22;132;48.770;9.200;2023-12-20T01:23:50;6.50;1.00
296;DHT22;132;48.770;9.200;2023-12-20T01:26:36;6.50;1.00
296;DHT22;132;48.770;9.200;2023-12-20T01:29:23;6.50;1.00
296;DHT22;132;48.770;9.200;2023-12-20T01:32:09;6.50;1.00
296;DHT22;132;48.770;9.200;2023-12-20T01:34:56;6.40;1.00
296;DHT22;132;48.770;9.200;2023-12-20T01:37:43;6.40;1.00
296;DHT22;132;48.770;9.200;2023-12-20T01:40:29;7.00;1.00
296;DHT22;132;48.770;9.200;2023-12-20T01:43:16;7.40;1.00
296;DHT22;132;48.770;9.200;2023-12-20T01:46:03;6.40;1.00
296;DHT22;132;48.770;9.200;2023-12-20T01:48:49;6.40;1.00
296;DHT22;132;48.770;9.200;2023-12-20T01:51:36;6.40;1.00
296;DHT22;132;48.770;9.200;2023-12-20T01:54:23;6.40;1.00
296;DHT22;132;48.770;9.200;2023-12-20T01:57:10;7.10;1.00
296;DHT22;132;48.770;9.200;2023-12-20T01:59:57;6.40;1.00
296;DHT22;132;48.770;9.200;2023-12-20T02:02:45;6.40;1.00
296;DHT22;132;48.770;9.200;2023-12-20T02:05:33;6.40;1.00
296;DHT22;132;48.770;9.200;2023-12-20T02:08:20;6.40;1.00
296;DHT22;132;48.770;9.200;2023-12-20T02:11:06;6.40;1.00
296;DHT22;132;48.770;9.200;2023-12-20T02:13:54;6.40;1.00
296;DHT22;132;48.770;9.200;2023-12-20T02:16:41;6.90;1.00
296;DHT22;132;48.770;9.200;2023-12-20T02:19:27;7.10;1.00
296;DHT22;132;48.770;9.200;2023-12-20T02:22:14;6.50;1.00
296;DHT22;132;48.770;9.200;2023-12-20T02:25:00;6.40;1.00
296;DHT22;132;48.770;9.200;2023-12-20T02:27:48;6.50;1.00
296;DHT22;132;48.770;9.200;2023-12-20T02:30:35;6.50;1.00
296;DHT22;132;48.770;9.200;2023-12-20T02:33:22;6.50;1.00
296;DHT22;132;48.770;9.200;2023-12-20T02:36:08;6.50;1.00
296;DHT22;132;48.770;9.200;2023-12-20T02:38:55;6.50;1.00
296;DHT22;132;48.770;9.200;2023-12-20T02:41:42;6.50;1.00
296;DHT22;132;48.770;9.200;2023-12-20T02:44:28;6.50;1.00
296;DHT22;132;48.770;9.200;2023-12-20T02:47:15;7.40;1.00
296;DHT22;132;48.770;9.200;2023-12-20T02:50:01;6.50;1.00
296;DHT22;132;48.770;9.200;2023-12-20T02:52:48;6.50;1.00
296;DHT22;132;48.770;9.200;2023-12-20T02:55:34;6.50;1.00
296;DHT22;132;48.770;9.200;2023-12-20T02:58:21;6.80;1.00
296;DHT22;132;48.770;9.200;2023-12-20T03:01:08;6.40;1.00
296;DHT22;132;48.770;9.200;2023-12-20T03:03:54;6.50;1.00
296;DHT22;132;48.770;9.200;2023-12-20T03:06:41;6.50;1.00
296;DHT22;132;48.770;9.200;2023-12-20T03:12:23;6.50;1.00
296;DHT22;132;48.770;9.200;2023-12-20T03:15:10;6.80;1.00
296;DHT22;132;48.770;9.200;2023-12-20T03:17:57;6.50;1.00
296;DHT22;132;48.770;9.200;2023-12-20T03:20:45;6.50;1.00
296;DHT22;132;48.770;9.200;2023-12-20T03:23:33;6.40;1.00
296;DHT22;132;48.770;9.200;2023-12-20T03:26:20;7.00;1.00
296;DHT22;132;48.770;9.200;2023-12-20T03:29:08;6.40;1.00
296;DHT22;132;48.770;9.200;2023-12-20T03:31:55;6.40;1.00
296;DHT22;132;48.770;9.200;2023-12-20T03:34:41;6.50;1.00
296;DHT22;132;48.770;9.200;2023-12-20T03:37:28;6.40;1.00
296;DHT22;132;48.770;9.200;2023-12-20T03:40:15;7.20;1.00
296;DHT22;132;48.770;9.200;2023-12-20T03:43:01;7.30;1.00
296;DHT22;132;48.770;9.200;2023-12-20T03:45:48;6.80;1.00
296;DHT22;132;48.770;9.200;2023-12-20T03:48:34;7.00;1.00
296;DHT22;132;48.770;9.200;2023-12-20T03:51:21;7.40;1.00
296;DHT22;132;48.770;9.200;2023-12-20T03:54:07;6.60;1.00
296;DHT22;132;48.770;9.200;2023-12-20T03:56:54;6.30;1.00
296;DHT22;132;48.770;9.200;2023-12-20T03:59:41;6.30;1.00
296;DHT22;132;48.770;9.200;2023-12-20T04:02:27;6.30;1.00
296;DHT22;132;48.770;9.200;2023-12-20T04:05:14;6.30;1.00
296;DHT22;132;48.770;9.200;2023-12-20T04:08:01;6.20;1.00
296;DHT22;132;48.770;9.200;2023-12-20T04:10:48;6.20;1.00
296;DHT22;132;48.770;9.200;2023-12-20T04:13:34;6.20;1.00
296;DHT22;132;48.770;9.200;2023-12-20T04:16:21;6.20;1.00
296;DHT22;132;48.770;9.200;2023-12-20T04:19:07;6.10;1.00
296;DHT22;132;48.770;9.200;2023-12-20T04:21:54;6.10;1.00
296;DHT22;132;48.770;9.200;2023-12-20T04:24:41;6.10;1.00
296;DHT22;132;48.770;9.200;2023-12-20T04:27:30;6.10;1.00
296;DHT22;132;48.770;9.200;2023-12-20T04:30:17;6.10;1.00
296;DHT22;132;48.770;9.200;2023-12-20T04:33:04;6.10;1.00
296;DHT22;132;48.770;9.200;2023-12-20T04:35:50;6.10;1.00
296;DHT22;132;48.770;9.200;2023-12-20T04:38:37;6.00;1.00
296;DHT22;132;48.770;9.200;2023-12-20T04:41:24;6.70;1.00
296;DHT22;132;48.770;9.200;2023-12-20T04:44:11;6.00;1.00
296;DHT22;132;48.770;9.200;2023-12-20T04:46:57;6.00;1.00
296;DHT22;132;48.770;9.200;2023-12-20T04:49:44;6.00;1.00
296;DHT22;132;48.770;9.200;2023-12-20T04:52:31;6.00;1.00
296;DHT22;132;48.770;9.200;2023-12-20T04:55:17;6.00;1.00
296;DHT22;132;48.770;9.200;2023-12-20T04:58:04;5.90;1.00
296;DHT22;132;48.770;9.200;2023-12-20T05:00:50;5.90;1.00
296;DHT22;132;48.770;9.200;2023-12-20T05:03:37;6.50;1.00
296;DHT22;132;48.770;9.200;2023-12-20T05:06:23;5.90;1.00
296;DHT22;132;48.770;9.200;2023-12-20T05:09:11;5.90;1.00
296;DHT22;132;48.770;9.200;2023-12-20T05:11:57;5.90;1.00
296;DHT22;132;48.770;9.200;2023-12-20T05:14:44;5.90;1.00
296;DHT22;132;48.770;9.200;2023-12-20T05:17:30;5.90;1.00
296;DHT22;132;48.770;9.200;2023-12-20T05:20:17;5.80;1.00
296;DHT22;132;48.770;9.200;2023-12-20T05:23:04;5.80;1.00
296;DHT22;132;48.770;9.200;2023-12-20T05:25:50;5.80;1.00
296;DHT22;132;48.770;9.200;2023-12-20T05:28:37;6.10;1.00
296;DHT22;132;48.770;9.200;2023-12-20T05:31:23;5.80;1.00
296;DHT22;132;48.770;9.200;2023-12-20T05:34:10;5.80;1.00
296;DHT22;132;48.770;9.200;2023-12-20T05:36:57;5.80;1.00
296;DHT22;132;48.770;9.200;2023-12-20T05:39:44;5.70;1.00
296;DHT22;132;48.770;9.200;2023-12-20T05:42:31;6.00;1.00
296;DHT22;132;48.770;9.200;2023-12-20T05:45:17;5.80;1.00
296;DHT22;132;48.770;9.200;2023-12-20T05:48:04;6.40;1.00
296;DHT22;132;48.770;9.200;2023-12-20T05:50:51;5.80;1.00
296;DHT22;132;48.770;9.200;2023-12-20T05:53:37;5.80;1.00
296;DHT22;132;48.770;9.200;2023-12-20T05:56:24;5.80;1.00
296;DHT22;132;48.770;9.200;2023-12-20T05:59:11;5.80;1.00
296;DHT22;132;48.770;9.200;2023-12-20T06:01:57;5.80;1.00
296;DHT22;132;48.770;9.200;2023-12-20T06:04:44;5.80;1.00
296;DHT22;132;48.770;9.200;2023-12-20T06:07:31;6.70;1.00
296;DHT22;132;48.770;9.200;2023-12-20T06:10:18;5.90;1.00
296;DHT22;132;48.770;9.200;2023-12-20T06:13:04;5.80;1.00
296;DHT22;132;48.770;9.200;2023-12-20T06:15:54;5.80;1.00
296;DHT22;132;48.770;9.200;2023-12-20T06:18:41;5.80;1.00
296;DHT22;132;48.770;9.200;2023-12-20T06:21:28;5.90;1.00
296;DHT22;132;48.770;9.200;2023-12-20T06:24:14;5.80;1.00
296;DHT22;132;48.770;9.200;2023-12-20T06:27:01;5.90;1.00
296;DHT22;132;48.770;9.200;2023-12-20T06:29:48;5.90;1.00
296;DHT22;132;48.770;9.200;2023-12-20T06:32:35;5.90;1.00
296;DHT22;132;48.770;9.200;2023-12-20T06:35:21;5.90;1.00
296;DHT22;132;48.770;9.200;2023-12-20T06:38:08;5.90;1.00
296;DHT22;132;48.770;9.200;2023-12-20T06:40:55;5.90;1.00
296;DHT22;132;48.770;9.200;2023-12-20T06:43:43;5.90;1.00
296;DHT22;132;48.770;9.200;2023-12-20T06:46:30;5.90;1.00
296;DHT22;132;48.770;9.200;2023-12-20T06:49:16;6.00;1.00
296;DHT22;132;48.770;9.200;2023-12-20T06:52:04;6.00;1.00
296;DHT22;132;48.770;9.200;2023-12-20T06:54:50;6.00;1.00
296;DHT22;132;48.770;9.200;2023-12-20T06:57:37;6.30;1.00
296;DHT22;132;48.770;9.200;2023-12-20T07:00:24;6.00;1.00
296;DHT22;132;48.770;9.200;2023-12-20T07:03:10;6.00;1.00
296;DHT22;132;48.770;9.200;2023-12-20T07:05:57;6.00;1.00
296;DHT22;132;48.770;9.200;2023-12-20T07:08:43;6.00;1.00
296;DHT22;132;48.770;9.200;2023-12-20T07:11:30;6.10;1.00
296;DHT22;132;48.770;9.200;2023-12-20T07:14:16;6.10;1.00
296;DHT22;132;48.770;9.200;2023-12-20T07:17:03;6.10;1.00
296;DHT22;132;48.770;9.200;2023-12-20T07:19:50;6.10;1.00
296;DHT22;132;48.770;9.200;2023-12-20T07:22:36;6.10;1.00
296;DHT22;132;48.770;9.200;2023-12-20T07:25:23;6.90;1.00
296;DHT22;132;48.770;9.200;2023-12-20T07:28:10;6.20;1.00
296;DHT22;132;48.770;9.200;2023-12-20T07:30:56;7.20;1.00
296;DHT22;132;48.770;9.200;2023-12-20T07:33:43;6.20;1.00
296;DHT22;132;48.770;9.200;2023-12-20T07:36:30;6.20;1.00
296;DHT22;132;48.770;9.200;2023-12-20T07:39:16;6.20;1.00
296;DHT22;132;48.770;9.200;2023-12-20T07:42:03;6.20;1.00
296;DHT22;132;48.770;9.200;2023-12-20T07:44:49;6.20;1.00
296;DHT22;132;48.770;9.200;2023-12-20T07:47:36;6.70;1.00
296;DHT22;132;48.770;9.200;2023-12-20T07:50:23;6.20;1.00
296;DHT22;132;48.770;9.200;2023-12-20T07:53:10;6.90;1.00
296;DHT22;132;48.770;9.200;2023-12-20T07:55:56;6.20;1.00
296;DHT22;132;48.770;9.200;2023-12-20T07:58:43;6.90;1.00
296;DHT22;132;48.770;9.200;2023-12-20T08:01:30;6.90;1.00
296;DHT22;132;48.770;9.200;2023-12-20T08:04:16;6.00;1.00
296;DHT22;132;48.770;9.200;2023-12-20T08:07:04;6.00;1.00
296;DHT22;132;48.770;9.200;2023-12-20T08:09:50;6.00;1.00
296;DHT22;132;48.770;9.200;2023-12-20T08:12:38;6.00;1.00
296;DHT22;132;48.770;9.200;2023-12-20T08:15:26;6.00;1.00
296;DHT22;132;48.770;9.200;2023-12-20T08:18:12;6.00;1.00
296;DHT22;132;48.770;9.200;2023-12-20T08:20:59;5.90;1.00
296;DHT22;132;48.770;9.200;2023-12-20T08:23:46;5.90;1.00
296;DHT22;132;48.770;9.200;2023-12-20T08:26:34;5.30;1.00
296;DHT22;132;48.770;9.200;2023-12-20T08:29:20;6.30;1.00
296;DHT22;132;48.770;9.200;2023-12-20T08:32:07;6.00;1.00
296;DHT22;132;48.770;9.200;2023-12-20T08:34:54;5.90;1.00
296;DHT22;132;48.770;9.200;2023-12-20T08:37:40;5.90;1.00
296;DHT22;132;48.770;9.200;2023-12-20T08:40:27;5.90;1.00
296;DHT22;132;48.770;9.200;2023-12-20T08:43:14;5.90;1.00
296;DHT22;132;48.770;9.200;2023-12-20T08:46:01;6.10;1.00
296;DHT22;132;48.770;9.200;2023-12-20T08:48:47;6.10;1.00
296;DHT22;132;48.770;9.200;2023-12-20T08:51:34;6.40;1.00
296;DHT22;132;48.770;9.200;2023-12-20T08:54:25;6.20;1.00
296;DHT22;132;48.770;9.200;2023-12-20T08:57:11;6.20;1.00
296;DHT22;132;48.770;9.200;2023-12-20T08:59:58;6.20;1.00
296;DHT22;132;48.770;9.200;2023-12-20T09:02:44;6.80;1.00
296;DHT22;132;48.770;9.200;2023-12-20T09:05:31;6.70;1.00
296;DHT22;132;48.770;9.200;2023-12-20T09:08:18;5.80;1.00
296;DHT22;132;48.770;9.200;2023-12-20T09:11:05;5.70;1.00
296;DHT22;132;48.770;9.200;2023-12-20T09:13:51;5.70;1.00
296;DHT22;132;48.770;9.200;2023-12-20T09:16:38;5.70;1.00
296;DHT22;132;48.770;9.200;2023-12-20T09:19:25;5.60;1.00
296;DHT22;132;48.770;9.200;2023-12-20T09:22:12;5.60;1.00
296;DHT22;132;48.770;9.200;2023-12-20T09:24:58;5.50;1.00
296;DHT22;132;48.770;9.200;2023-12-20T09:27:45;5.50;1.00
296;DHT22;132;48.770;9.200;2023-12-20T09:30:32;5.50;1.00
296;DHT22;132;48.770;9.200;2023-12-20T09:33:18;5.50;1.00
296;DHT22;132;48.770;9.200;2023-12-20T09:36:05;5.50;1.00
296;DHT22;132;48.770;9.200;2023-12-20T09:38:52;5.50;1.00
296;DHT22;132;48.770;9.200;2023-12-20T09:41:43;5.50;1.00
296;DHT22;132;48.770;9.200;2023-12-20T09:44:31;5.50;1.00
296;DHT22;132;48.770;9.200;2023-12-20T09:47:23;5.50;1.00
296;DHT22;132;48.770;9.200;2023-12-20T09:50:11;5.60;1.00
296;DHT22;132;48.770;9.200;2023-12-20T09:52:58;5.50;1.00
296;DHT22;132;48.770;9.200;2023-12-20T09:55:47;5.60;1.00
296;DHT22;132;48.770;9.200;2023-12-20T09:58:37;5.70;1.00
296;DHT22;132;48.770;9.200;2023-12-20T10:01:26;5.60;1.00
296;DHT22;132;48.770;9.200;2023-12-20T10:04:16;5.70;1.00
296;DHT22;132;48.770;9.200;2023-12-20T10:07:03;5.70;1.00
296;DHT22;132;48.770;9.200;2023-12-20T10:09:54;5.70;1.00
296;DHT22;132;48.770;9.200;2023-12-20T10:13:07;5.70;1.00
296;DHT22;132;48.770;9.200;2023-12-20T10:15:55;6.70;1.00
296;DHT22;132;48.770;9.200;2023-12-20T10:18:42;5.90;1.00
296;DHT22;132;48.770;9.200;2023-12-20T10:21:29;6.80;1.00
296;DHT22;132;48.770;9.200;2023-12-20T10:24:19;6.30;1.00
296;DHT22;132;48.770;9.200;2023-12-20T10:27:07;6.50;1.00
296;DHT22;132;48.770;9.200;2023-12-20T10:29:54;6.40;1.00
296;DHT22;132;48.770;9.200;2023-12-20T10:32:41;6.40;1.00
296;DHT22;132;48.770;9.200;2023-12-20T10:35:28;6.50;1.00
296;DHT22;132;48.770;9.200;2023-12-20T10:38:15;7.40;1.00
296;DHT22;132;48.770;9.200;2023-12-20T10:41:04;6.50;1.00
296;DHT22;132;48.770;9.200;2023-12-20T10:43:52;6.40;1.00
296;DHT22;132;48.770;9.200;2023-12-20T10:46:40;6.40;1.00
296;DHT22;132;48.770;9.200;2023-12-20T10:49:27;6.50;1.00
296;DHT22;132;48.770;9.200;2023-12-20T10:52:16;6.50;1.00
296;DHT22;132;48.770;9.200;2023-12-20T10:55:04;6.50;1.00
296;DHT22;132;48.770;9.200;2023-12-20T10:57:51;5.80;1.00
296;DHT22;132;48.770;9.200;2023-12-20T11:00:40;6.50;1.00
296;DHT22;132;48.770;9.200;2023-12-20T11:03:29;6.60;1.00
296;DHT22;132;48.770;9.200;2023-12-20T11:07:32;6.60;1.00
296;DHT22;132;48.770;9.200;2023-12-20T11:13:17;6.60;1.00
296;DHT22;132;48.770;9.200;2023-12-20T11:16:04;6.60;1.00
296;DHT22;132;48.770;9.200;2023-12-20T11:18:51;6.70;1.00
296;DHT22;132;48.770;9.200;2023-12-20T11:21:39;6.80;1.00
296;DHT22;132;48.770;9.200;2023-12-20T11:24:26;6.80;1.00
296;DHT22;132;48.770;9.200;2023-12-20T11:27:13;6.80;1.00
296;DHT22;132;48.770;9.200;2023-12-20T11:30:03;6.70;1.00
296;DHT22;132;48.770;9.200;2023-12-20T11:32:52;6.70;1.00
296;DHT22;132;48.770;9.200;2023-12-20T11:35:39;6.60;1.00
296;DHT22;132;48.770;9.200;2023-12-20T11:38:26;6.60;1.00
296;DHT22;132;48.770;9.200;2023-12-20T11:41:13;6.60;1.00
296;DHT22;132;48.770;9.200;2023-12-20T11:43:59;6.50;1.00
296;DHT22;132;48.770;9.200;2023-12-20T11:46:47;6.40;1.00
296;DHT22;132;48.770;9.200;2023-12-20T11:49:34;6.80;1.00
296;DHT22;132;48.770;9.200;2023-12-20T11:52:20;6.40;1.00
296;DHT22;132;48.770;9.200;2023-12-20T11:55:07;6.50;1.00
296;DHT22;132;48.770;9.200;2023-12-20T11:57:53;6.40;1.00
296;DHT22;132;48.770;9.200;2023-12-20T12:00:41;6.40;1.00
296;DHT22;132;48.770;9.200;2023-12-20T12:03:29;6.30;1.00
296;DHT22;132;48.770;9.200;2023-12-20T12:06:15;6.30;1.00
296;DHT22;132;48.770;9.200;2023-12-20T12:09:02;6.30;1.00
296;DHT22;132;48.770;9.200;2023-12-20T12:11:50;6.40;1.00
296;DHT22;132;48.770;9.200;2023-12-20T12:14:37;6.30;1.00
296;DHT22;132;48.770;9.200;2023-12-20T12:17:24;6.30;1.00
296;DHT22;132;48.770;9.200;2023-12-20T12:20:11;6.30;1.00
296;DHT22;132;48.770;9.200;2023-12-20T12:23:03;6.40;1.00
296;DHT22;132;48.770;9.200;2023-12-20T12:25:50;6.50;1.00
296;DHT22;132;48.770;9.200;2023-12-20T12:28:40;6.60;1.00
296;DHT22;132;48.770;9.200;2023-12-20T12:31:27;6.60;1.00
296;DHT22;132;48.770;9.200;2023-12-20T12:34:14;6.60;1.00
296;DHT22;132;48.770;9.200;2023-12-20T12:37:03;6.60;1.00
296;DHT22;132;48.770;9.200;2023-12-20T12:39:53;6.60;1.00
296;DHT22;132;48.770;9.200;2023-12-20T12:42:41;6.70;1.00
296;DHT22;132;48.770;9.200;2023-12-20T12:45:28;6.60;1.00
296;DHT22;132;48.770;9.200;2023-12-20T12:48:15;6.90;1.00
296;DHT22;132;48.770;9.200;2023-12-20T12:51:02;6.90;1.00
296;DHT22;132;48.770;9.200;2023-12-20T12:53:48;7.00;1.00
296;DHT22;132;48.770;9.200;2023-12-20T12:56:36;6.90;1.00
296;DHT22;132;48.770;9.200;2023-12-20T12:59:22;6.80;1.00
296;DHT22;132;48.770;9.200;2023-12-20T13:02:09;6.70;1.00
296;DHT22;132;48.770;9.200;2023-12-20T13:04:56;6.80;1.00
296;DHT22;132;48.770;9.200;2023-12-20T13:07:42;7.60;1.00
296;DHT22;132;48.770;9.200;2023-12-20T13:10:31;6.90;1.00
296;DHT22;132;48.770;9.200;2023-12-20T13:13:18;6.80;1.00
296;DHT22;132;48.770;9.200;2023-12-20T13:16:05;6.90;1.00
296;DHT22;132;48.770;9.200;2023-12-20T13:18:51;6.80;1.00
296;DHT22;132;48.770;9.200;2023-12-20T13:21:38;6.90;1.00
296;DHT22;132;48.770;9.200;2023-12-20T13:24:24;6.80;1.00
296;DHT22;132;48.770;9.200;2023-12-20T13:27:11;6.80;1.00
296;DHT22;132;48.770;9.200;2023-12-20T13:29:58;6.80;1.00
296;DHT22;132;48.770;9.200;2023-12-20T13:32:44;8.70;1.00
296;DHT22;132;48.770;9.200;2023-12-20T13:35:31;8.90;1.00
296;DHT22;132;48.770;9.200;2023-12-20T13:38:18;10.10;1.00
296;DHT22;132;48.770;9.200;2023-12-20T13:41:05;11.20;1.00
296;DHT22;132;48.770;9.200;2023-12-20T13:43:51;10.40;1.00
296;DHT22;132;48.770;9.200;2023-12-20T13:46:41;9.60;1.00
296;DHT22;132;48.770;9.200;2023-12-20T13:49:28;9.10;1.00
296;DHT22;132;48.770;9.200;2023-12-20T13:52:14;8.60;1.00
296;DHT22;132;48.770;9.200;2023-12-20T13:55:01;8.20;1.00
296;DHT22;132;48.770;9.200;2023-12-20T13:57:48;7.90;1.00
296;DHT22;132;48.770;9.200;2023-12-20T14:00:36;7.60;1.00
296;DHT22;132;48.770;9.200;2023-12-20T14:03:23;7.50;1.00
296;DHT22;132;48.770;9.200;2023-12-20T14:06:09;7.40;1.00
296;DHT22;132;48.770;9.200;2023-12-20T14:08:56;7.30;1.00
296;DHT22;132;48.770;9.200;2023-12-20T14:11:42;7.10;1.00
296;DHT22;132;48.770;9.200;2023-12-20T14:14:29;7.00;1.00
296;DHT22;132;48.770;9.200;2023-12-20T14:17:17;6.90;1.00
296;DHT22;132;48.770;9.200;2023-12-20T14:20:05;6.90;1.00
296;DHT22;132;48.770;9.200;2023-12-20T14:22:53;6.80;1.00
296;DHT22;132;48.770;9.200;2023-12-20T14:25:40;6.70;1.00
296;DHT22;132;48.770;9.200;2023-12-20T14:28:27;6.70;1.00
296;DHT22;132;48.770;9.200;2023-12-20T14:31:14;6.70;1.00
296;DHT22;132;48.770;9.200;2023-12-20T14:34:01;6.60;1.00
296;DHT22;132;48.770;9.200;2023-12-20T14:36:50;7.40;1.00
296;DHT22;132;48.770;9.200;2023-12-20T14:39:36;6.40;1.00
296;DHT22;132;48.770;9.200;2023-12-20T14:42:27;6.40;1.00
296;DHT22;132;48.770;9.200;2023-12-20T14:45:14;6.30;1.00
296;DHT22;132;48.770;9.200;2023-12-20T14:48:02;6.30;1.00
296;DHT22;132;48.770;9.200;2023-12-20T14:50:49;6.30;1.00
296;DHT22;132;48.770;9.200;2023-12-20T14:53:37;6.30;1.00
296;DHT22;132;48.770;9.200;2023-12-20T14:56:24;6.20;1.00
296;DHT22;132;48.770;9.200;2023-12-20T14:59:12;7.10;1.00
296;DHT22;132;48.770;9.200;2023-12-20T15:01:59;6.00;1.00
296;DHT22;132;48.770;9.200;2023-12-20T15:04:46;6.30;1.00
296;DHT22;132;48.770;9.200;2023-12-20T15:07:32;6.00;1.00
296;DHT22;132;48.770;9.200;2023-12-20T15:10:19;6.00;1.00
296;DHT22;132;48.770;9.200;2023-12-20T15:13:06;5.90;1.00
296;DHT22;132;48.770;9.200;2023-12-20T15:15:53;5.90;1.00
296;DHT22;132;48.770;9.200;2023-12-20T15:18:39;5.90;1.00
296;DHT22;132;48.770;9.200;2023-12-20T15:21:26;5.90;1.00
296;DHT22;132;48.770;9.200;2023-12-20T15:24:18;5.90;1.00
296;DHT22;132;48.770;9.200;2023-12-20T15:27:12;5.90;1.00
296;DHT22;132;48.770;9.200;2023-12-20T15:29:59;5.90;1.00
296;DHT22;132;48.770;9.200;2023-12-20T15:32:46;5.90;1.00
296;DHT22;132;48.770;9.200;2023-12-20T15:35:32;5.90;1.00
296;DHT22;132;48.770;9.200;2023-12-20T15:38:19;5.80;1.00
296;DHT22;132;48.770;9.200;2023-12-20T15:41:06;5.80;1.00
296;DHT22;132;48.770;9.200;2023-12-20T15:43:52;5.70;1.00
296;DHT22;132;48.770;9.200;2023-12-20T15:46:39;6.10;1.00
296;DHT22;132;48.770;9.200;2023-12-20T15:49:25;5.70;1.00
296;DHT22;132;48.770;9.200;2023-12-20T15:52:12;5.70;1.00
296;DHT22;132;48.770;9.200;2023-12-20T15:54:58;5.70;1.00
296;DHT22;132;48.770;9.200;2023-12-20T15:57:45;5.70;1.00
296;DHT22;132;48.770;9.200;2023-12-20T16:00:32;5.70;1.00
296;DHT22;132;48.770;9.200;2023-12-20T16:03:18;5.70;1.00
296;DHT22;132;48.770;9.200;2023-12-20T16:06:05;5.70;1.00
296;DHT22;132;48.770;9.200;2023-12-20T16:08:52;5.60;1.00
296;DHT22;132;48.770;9.200;2023-12-20T16:11:38;6.70;1.00
296;DHT22;132;48.770;9.200;2023-12-20T16:14:27;6.20;1.00
296;DHT22;132;48.770;9.200;2023-12-20T16:17:15;5.60;1.00
296;DHT22;132;48.770;9.200;2023-12-20T16:20:03;5.60;1.00
296;DHT22;132;48.770;9.200;2023-12-20T16:22:50;5.60;1.00
296;DHT22;132;48.770;9.200;2023-12-20T16:25:37;6.60;1.00
296;DHT22;132;48.770;9.200;2023-12-20T16:28:24;5.50;1.00
296;DHT22;132;48.770;9.200;2023-12-20T16:31:11;5.40;1.00
296;DHT22;132;48.770;9.200;2023-12-20T16:33:57;5.40;1.00
296;DHT22;132;48.770;9.200;2023-12-20T16:36:52;5.60;1.00
296;DHT22;132;48.770;9.200;2023-12-20T16:39:40;5.40;1.00
296;DHT22;132;48.770;9.200;2023-12-20T16:42:26;5.40;1.00
296;DHT22;132;48.770;9.200;2023-12-20T16:45:13;5.40;1.00
296;DHT22;132;48.770;9.200;2023-12-20T16:48:00;5.40;1.00
296;DHT22;132;48.770;9.200;2023-12-20T16:50:46;5.40;1.00
296;DHT22;132;48.770;9.200;2023-12-20T16:53:33;5.30;1.00
296;DHT22;132;48.770;9.200;2023-12-20T16:56:19;5.30;1.00
296;DHT22;132;48.770;9.200;2023-12-20T16:59:06;5.30;1.00
296;DHT22;132;48.770;9.200;2023-12-20T17:01:53;5.30;1.00
296;DHT22;132;48.770;9.200;2023-12-20T17:04:40;5.30;1.00
296;DHT22;132;48.770;9.200;2023-12-20T17:07:29;5.30;1.00
296;DHT22;132;48.770;9.200;2023-12-20T17:10:15;5.50;1.00
296;DHT22;132;48.770;9.200;2023-12-20T17:13:02;5.20;1.00
296;DHT22;132;48.770;9.200;2023-12-20T17:15:49;5.30;1.00
296;DHT22;132;48.770;9.200;2023-12-20T17:18:35;5.80;1.00
296;DHT22;132;48.770;9.200;2023-12-20T17:21:22;5.20;1.00
296;DHT22;132;48.770;9.200;2023-12-20T17:24:08;5.20;1.00
296;DHT22;132;48.770;9.200;2023-12-20T17:26:55;5.10;1.00
296;DHT22;132;48.770;9.200;2023-12-20T17:29:42;5.20;1.00
296;DHT22;132;48.770;9.200;2023-12-20T17:32:29;6.10;1.00
296;DHT22;132;48.770;9.200;2023-12-20T17:35:15;5.20;1.00
296;DHT22;132;48.770;9.200;2023-12-20T17:38:02;5.10;1.00
296;DHT22;132;48.770;9.200;2023-12-20T17:40:49;5.10;1.00
296;DHT22;132;48.770;9.200;2023-12-20T17:43:36;5.10;1.00
296;DHT22;132;48.770;9.200;2023-12-20T17:46:23;5.20;1.00
296;DHT22;132;48.770;9.200;2023-12-20T17:49:09;5.20;1.00
296;DHT22;132;48.770;9.200;2023-12-20T17:51:56;5.10;1.00
296;DHT22;132;48.770;9.200;2023-12-20T17:54:43;6.00;1.00
296;DHT22;132;48.770;9.200;2023-12-20T17:57:29;5.20;1.00
296;DHT22;132;48.770;9.200;2023-12-20T18:00:19;5.20;1.00
296;DHT22;132;48.770;9.200;2023-12-20T18:03:06;5.20;1.00
296;DHT22;132;48.770;9.200;2023-12-20T18:05:53;5.70;1.00
296;DHT22;132;48.770;9.200;2023-12-20T18:08:40;5.20;1.00
296;DHT22;132;48.770;9.200;2023-12-20T18:11:27;5.20;1.00
296;DHT22;132;48.770;9.200;2023-12-20T18:14:13;5.90;1.00
296;DHT22;132;48.770;9.200;2023-12-20T18:17:00;5.20;1.00
296;DHT22;132;48.770;9.200;2023-12-20T18:19:46;5.20;1.00
296;DHT22;132;48.770;9.200;2023-12-20T18:22:33;5.20;1.00
296;DHT22;132;48.770;9.200;2023-12-20T18:25:20;5.30;1.00
296;DHT22;132;48.770;9.200;2023-12-20T18:28:06;5.20;1.00
296;DHT22;132;48.770;9.200;2023-12-20T18:30:53;5.20;1.00
296;DHT22;132;48.770;9.200;2023-12-20T18:33:40;5.20;1.00
296;DHT22;132;48.770;9.200;2023-12-20T18:36:27;5.50;1.00
296;DHT22;132;48.770;9.200;2023-12-20T18:39:13;6.20;1.00
296;DHT22;132;48.770;9.200;2023-12-20T18:42:00;5.20;1.00
296;DHT22;132;48.770;9.200;2023-12-20T18:44:49;5.20;1.00
296;DHT22;132;48.770;9.200;2023-12-20T18:47:35;5.20;1.00
296;DHT22;132;48.770;9.200;2023-12-20T18:50:22;5.20;1.00
296;DHT22;132;48.770;9.200;2023-12-20T18:53:09;5.30;1.00
296;DHT22;132;48.770;9.200;2023-12-20T18:55:55;6.10;1.00
296;DHT22;132;48.770;9.200;2023-12-20T18:58:42;6.00;1.00
296;DHT22;132;48.770;9.200;2023-12-20T19:01:31;5.20;1.00
296;DHT22;132;48.770;9.200;2023-12-20T19:04:18;5.20;1.00
296;DHT22;132;48.770;9.200;2023-12-20T19:07:05;5.20;1.00
296;DHT22;132;48.770;9.200;2023-12-20T19:09:51;5.20;1.00
296;DHT22;132;48.770;9.200;2023-12-20T19:12:39;5.20;1.00
296;DHT22;132;48.770;9.200;2023-12-20T19:15:26;5.90;1.00
296;DHT22;132;48.770;9.200;2023-12-20T19:18:12;5.20;1.00
296;DHT22;132;48.770;9.200;2023-12-20T19:20:59;5.30;1.00
296;DHT22;132;48.770;9.200;2023-12-20T19:23:46;5.30;1.00
296;DHT22;132;48.770;9.200;2023-12-20T19:26:32;5.30;1.00
296;DHT22;132;48.770;9.200;2023-12-20T19:29:19;5.30;1.00
296;DHT22;132;48.770;9.200;2023-12-20T19:32:06;5.30;1.00
296;DHT22;132;48.770;9.200;2023-12-20T19:34:53;5.20;1.00